CAT3 weather

Nanaimo/Long Lake Seaplane Base
British Columbia, Canada

Public forecast

Using degrees Celsius for public forecast. Weather courtesy of forecast.io.

Closest aviation weather report (METAR) to Nanaimo/Long Lake Seaplane Base

Closest report is Nanaimo Airport, 11.3 nm (20.9 km) SSE. Retrieved 2020/08/05 13:00 UTC (46 seconds ago):

CYCD 051300Z 00000KT 30SM FEW080 15/13 A2992 RMK AC1 AC TR SLP133 DENSITY ALT 100FT

Closest aviation forecast (TAF) to Nanaimo/Long Lake Seaplane Base

Forecast is more than 12 hours old.

Closest forecast is Nanaimo Airport, 11.3 nm (20.9 km) SSE. Retrieved 2020-08-05 00:00 UTC (13 hours ago):

TAF CYCD 042338Z 0500/0504 02006KT P6SM FEW060 BECMG 0500/0502 VRB03KT RMK NXT FCST WILL BE ISSUED AT 051445Z